sensor_id;sensor_type;location;lat;lon;timestamp;P1;durP1;ratioP1;P2;durP2;ratioP2
19535;SDS011;9913;51.168;4.124;2023-08-31T00:00:31;9.00;;;4.47;;
19535;SDS011;9913;51.168;4.124;2023-08-31T00:03:00;6.87;;;3.63;;
19535;SDS011;9913;51.168;4.124;2023-08-31T00:05:29;8.47;;;3.77;;
19535;SDS011;9913;51.168;4.124;2023-08-31T00:07:57;6.90;;;4.17;;
19535;SDS011;9913;51.168;4.124;2023-08-31T00:10:25;7.67;;;4.70;;
19535;SDS011;9913;51.168;4.124;2023-08-31T00:12:57;11.67;;;5.20;;
19535;SDS011;9913;51.168;4.124;2023-08-31T00:15:26;6.97;;;4.77;;
19535;SDS011;9913;51.168;4.124;2023-08-31T00:17:55;10.63;;;5.47;;
19535;SDS011;9913;51.168;4.124;2023-08-31T00:20:25;8.17;;;5.37;;
19535;SDS011;9913;51.168;4.124;2023-08-31T00:22:57;6.67;;;4.63;;
19535;SDS011;9913;51.168;4.124;2023-08-31T00:25:26;7.23;;;4.93;;
19535;SDS011;9913;51.168;4.124;2023-08-31T00:27:55;7.63;;;4.80;;
19535;SDS011;9913;51.168;4.124;2023-08-31T00:30:32;6.00;;;4.97;;
19535;SDS011;9913;51.168;4.124;2023-08-31T00:33:01;9.33;;;4.87;;
19535;SDS011;9913;51.168;4.124;2023-08-31T00:35:33;7.60;;;5.30;;
19535;SDS011;9913;51.168;4.124;2023-08-31T00:38:02;7.87;;;5.33;;
19535;SDS011;9913;51.168;4.124;2023-08-31T00:40:31;7.53;;;5.27;;
19535;SDS011;9913;51.168;4.124;2023-08-31T00:43:04;8.07;;;5.20;;
19535;SDS011;9913;51.168;4.124;2023-08-31T00:45:36;7.90;;;5.33;;
19535;SDS011;9913;51.168;4.124;2023-08-31T00:48:05;8.20;;;5.83;;
19535;SDS011;9913;51.168;4.124;2023-08-31T00:50:34;6.07;;;4.47;;
19535;SDS011;9913;51.168;4.124;2023-08-31T00:53:03;7.27;;;4.73;;
19535;SDS011;9913;51.168;4.124;2023-08-31T00:55:32;8.80;;;5.67;;
19535;SDS011;9913;51.168;4.124;2023-08-31T00:58:02;6.80;;;5.00;;
19535;SDS011;9913;51.168;4.124;2023-08-31T01:00:33;5.97;;;4.77;;
19535;SDS011;9913;51.168;4.124;2023-08-31T01:03:12;8.73;;;5.60;;
19535;SDS011;9913;51.168;4.124;2023-08-31T01:05:46;7.37;;;5.23;;
19535;SDS011;9913;51.168;4.124;2023-08-31T01:08:26;9.60;;;5.70;;
19535;SDS011;9913;51.168;4.124;2023-08-31T01:11:07;11.23;;;6.13;;
19535;SDS011;9913;51.168;4.124;2023-08-31T01:13:44;7.77;;;4.87;;
19535;SDS011;9913;51.168;4.124;2023-08-31T01:16:22;10.43;;;6.50;;
19535;SDS011;9913;51.168;4.124;2023-08-31T01:18:53;8.93;;;5.87;;
19535;SDS011;9913;51.168;4.124;2023-08-31T01:21:25;7.97;;;5.93;;
19535;SDS011;9913;51.168;4.124;2023-08-31T01:23:59;9.20;;;6.07;;
19535;SDS011;9913;51.168;4.124;2023-08-31T01:26:28;10.97;;;6.97;;
19535;SDS011;9913;51.168;4.124;2023-08-31T01:28:57;7.47;;;5.63;;
19535;SDS011;9913;51.168;4.124;2023-08-31T01:31:26;7.17;;;5.93;;
19535;SDS011;9913;51.168;4.124;2023-08-31T01:33:56;7.37;;;5.00;;
19535;SDS011;9913;51.168;4.124;2023-08-31T01:36:29;10.13;;;6.23;;
19535;SDS011;9913;51.168;4.124;2023-08-31T01:39:06;10.83;;;6.30;;
19535;SDS011;9913;51.168;4.124;2023-08-31T01:41:43;17.37;;;6.63;;
19535;SDS011;9913;51.168;4.124;2023-08-31T01:44:16;10.30;;;6.30;;
19535;SDS011;9913;51.168;4.124;2023-08-31T01:46:51;11.80;;;6.83;;
19535;SDS011;9913;51.168;4.124;2023-08-31T01:49:23;10.60;;;6.50;;
19535;SDS011;9913;51.168;4.124;2023-08-31T01:51:52;8.73;;;6.23;;
19535;SDS011;9913;51.168;4.124;2023-08-31T01:54:22;9.87;;;6.97;;
19535;SDS011;9913;51.168;4.124;2023-08-31T01:56:55;10.57;;;7.77;;
19535;SDS011;9913;51.168;4.124;2023-08-31T01:59:23;9.97;;;7.97;;
19535;SDS011;9913;51.168;4.124;2023-08-31T02:01:53;10.73;;;7.67;;
19535;SDS011;9913;51.168;4.124;2023-08-31T02:04:21;10.90;;;7.43;;
19535;SDS011;9913;51.168;4.124;2023-08-31T02:06:50;13.43;;;7.13;;
19535;SDS011;9913;51.168;4.124;2023-08-31T02:09:18;14.73;;;7.10;;
19535;SDS011;9913;51.168;4.124;2023-08-31T02:11:49;10.87;;;7.60;;
19535;SDS011;9913;51.168;4.124;2023-08-31T02:14:18;11.53;;;7.07;;
19535;SDS011;9913;51.168;4.124;2023-08-31T02:16:47;11.33;;;6.93;;
19535;SDS011;9913;51.168;4.124;2023-08-31T02:19:15;10.13;;;6.37;;
19535;SDS011;9913;51.168;4.124;2023-08-31T02:21:45;10.20;;;6.80;;
19535;SDS011;9913;51.168;4.124;2023-08-31T02:24:13;9.33;;;5.67;;
19535;SDS011;9913;51.168;4.124;2023-08-31T02:26:41;10.97;;;7.10;;
19535;SDS011;9913;51.168;4.124;2023-08-31T02:29:13;12.60;;;6.83;;
19535;SDS011;9913;51.168;4.124;2023-08-31T02:31:41;10.53;;;6.77;;
19535;SDS011;9913;51.168;4.124;2023-08-31T02:34:11;9.13;;;6.87;;
19535;SDS011;9913;51.168;4.124;2023-08-31T02:36:41;10.17;;;6.83;;
19535;SDS011;9913;51.168;4.124;2023-08-31T02:39:10;8.83;;;6.63;;
19535;SDS011;9913;51.168;4.124;2023-08-31T02:41:40;10.67;;;7.93;;
19535;SDS011;9913;51.168;4.124;2023-08-31T02:44:10;11.33;;;7.27;;
19535;SDS011;9913;51.168;4.124;2023-08-31T02:46:40;12.40;;;6.67;;
19535;SDS011;9913;51.168;4.124;2023-08-31T02:49:08;11.33;;;7.50;;
19535;SDS011;9913;51.168;4.124;2023-08-31T02:51:37;9.27;;;6.53;;
19535;SDS011;9913;51.168;4.124;2023-08-31T02:54:05;7.97;;;6.67;;
19535;SDS011;9913;51.168;4.124;2023-08-31T02:56:33;14.03;;;7.87;;
19535;SDS011;9913;51.168;4.124;2023-08-31T02:59:05;12.13;;;7.13;;
19535;SDS011;9913;51.168;4.124;2023-08-31T03:01:35;11.20;;;7.57;;
19535;SDS011;9913;51.168;4.124;2023-08-31T03:04:05;10.23;;;6.53;;
19535;SDS011;9913;51.168;4.124;2023-08-31T03:06:36;8.90;;;6.53;;
19535;SDS011;9913;51.168;4.124;2023-08-31T03:09:04;11.10;;;6.40;;
19535;SDS011;9913;51.168;4.124;2023-08-31T03:11:33;11.40;;;7.30;;
19535;SDS011;9913;51.168;4.124;2023-08-31T03:14:01;10.60;;;7.73;;
19535;SDS011;9913;51.168;4.124;2023-08-31T03:16:31;11.97;;;7.43;;
19535;SDS011;9913;51.168;4.124;2023-08-31T03:19:04;10.13;;;6.67;;
19535;SDS011;9913;51.168;4.124;2023-08-31T03:21:33;8.03;;;6.43;;
19535;SDS011;9913;51.168;4.124;2023-08-31T03:24:02;10.77;;;7.13;;
19535;SDS011;9913;51.168;4.124;2023-08-31T03:26:31;11.17;;;7.30;;
19535;SDS011;9913;51.168;4.124;2023-08-31T03:29:00;11.07;;;6.77;;
19535;SDS011;9913;51.168;4.124;2023-08-31T03:31:31;11.07;;;7.30;;
19535;SDS011;9913;51.168;4.124;2023-08-31T03:34:00;9.60;;;6.43;;
19535;SDS011;9913;51.168;4.124;2023-08-31T03:36:34;11.93;;;7.10;;
19535;SDS011;9913;51.168;4.124;2023-08-31T03:39:03;13.43;;;9.57;;
19535;SDS011;9913;51.168;4.124;2023-08-31T03:41:34;12.10;;;7.63;;
19535;SDS011;9913;51.168;4.124;2023-08-31T03:44:06;9.93;;;6.83;;
19535;SDS011;9913;51.168;4.124;2023-08-31T03:46:34;11.87;;;7.77;;
19535;SDS011;9913;51.168;4.124;2023-08-31T03:49:04;9.50;;;7.60;;
19535;SDS011;9913;51.168;4.124;2023-08-31T03:51:34;9.40;;;5.73;;
19535;SDS011;9913;51.168;4.124;2023-08-31T03:54:05;10.00;;;6.53;;
19535;SDS011;9913;51.168;4.124;2023-08-31T03:56:34;8.00;;;6.50;;
19535;SDS011;9913;51.168;4.124;2023-08-31T03:59:02;11.87;;;7.30;;
19535;SDS011;9913;51.168;4.124;2023-08-31T04:01:31;11.27;;;7.07;;
19535;SDS011;9913;51.168;4.124;2023-08-31T04:04:04;11.20;;;5.93;;
19535;SDS011;9913;51.168;4.124;2023-08-31T04:06:34;8.60;;;6.50;;
19535;SDS011;9913;51.168;4.124;2023-08-31T04:09:05;9.40;;;6.23;;
19535;SDS011;9913;51.168;4.124;2023-08-31T04:11:33;7.73;;;5.60;;
19535;SDS011;9913;51.168;4.124;2023-08-31T04:14:02;9.13;;;5.60;;
19535;SDS011;9913;51.168;4.124;2023-08-31T04:16:31;9.33;;;6.50;;
19535;SDS011;9913;51.168;4.124;2023-08-31T04:18:59;8.50;;;5.70;;
19535;SDS011;9913;51.168;4.124;2023-08-31T04:21:28;7.57;;;4.97;;
19535;SDS011;9913;51.168;4.124;2023-08-31T04:23:57;7.87;;;5.70;;
19535;SDS011;9913;51.168;4.124;2023-08-31T04:26:28;9.20;;;5.87;;
19535;SDS011;9913;51.168;4.124;2023-08-31T04:28:57;7.40;;;5.27;;
19535;SDS011;9913;51.168;4.124;2023-08-31T04:31:26;10.67;;;6.00;;
19535;SDS011;9913;51.168;4.124;2023-08-31T04:33:56;6.80;;;5.10;;
19535;SDS011;9913;51.168;4.124;2023-08-31T04:36:24;8.30;;;5.57;;
19535;SDS011;9913;51.168;4.124;2023-08-31T04:38:53;7.00;;;5.40;;
19535;SDS011;9913;51.168;4.124;2023-08-31T04:41:23;8.57;;;4.80;;
19535;SDS011;9913;51.168;4.124;2023-08-31T04:43:53;7.03;;;4.87;;
19535;SDS011;9913;51.168;4.124;2023-08-31T04:46:22;7.97;;;5.57;;
19535;SDS011;9913;51.168;4.124;2023-08-31T04:48:51;9.13;;;5.80;;
19535;SDS011;9913;51.168;4.124;2023-08-31T04:51:29;7.70;;;5.87;;
19535;SDS011;9913;51.168;4.124;2023-08-31T04:53:59;8.60;;;5.13;;
19535;SDS011;9913;51.168;4.124;2023-08-31T04:56:29;10.23;;;5.97;;
19535;SDS011;9913;51.168;4.124;2023-08-31T04:58:58;10.33;;;6.80;;
19535;SDS011;9913;51.168;4.124;2023-08-31T05:01:27;9.20;;;6.10;;
19535;SDS011;9913;51.168;4.124;2023-08-31T05:03:55;7.60;;;5.90;;
19535;SDS011;9913;51.168;4.124;2023-08-31T05:06:24;11.57;;;6.60;;
19535;SDS011;9913;51.168;4.124;2023-08-31T05:08:52;8.10;;;6.13;;
19535;SDS011;9913;51.168;4.124;2023-08-31T05:11:20;11.60;;;7.00;;
19535;SDS011;9913;51.168;4.124;2023-08-31T05:13:53;12.23;;;7.10;;
19535;SDS011;9913;51.168;4.124;2023-08-31T05:16:21;9.07;;;6.40;;
19535;SDS011;9913;51.168;4.124;2023-08-31T05:18:51;8.57;;;5.50;;
19535;SDS011;9913;51.168;4.124;2023-08-31T05:21:20;10.20;;;6.23;;
19535;SDS011;9913;51.168;4.124;2023-08-31T05:23:48;13.90;;;7.00;;
19535;SDS011;9913;51.168;4.124;2023-08-31T05:26:16;12.07;;;7.43;;
19535;SDS011;9913;51.168;4.124;2023-08-31T05:28:46;10.10;;;7.20;;
19535;SDS011;9913;51.168;4.124;2023-08-31T05:31:16;9.90;;;6.57;;
19535;SDS011;9913;51.168;4.124;2023-08-31T05:33:44;9.50;;;6.90;;
19535;SDS011;9913;51.168;4.124;2023-08-31T05:36:15;12.90;;;6.73;;
19535;SDS011;9913;51.168;4.124;2023-08-31T05:38:44;14.13;;;7.17;;
19535;SDS011;9913;51.168;4.124;2023-08-31T05:41:12;9.40;;;6.00;;
19535;SDS011;9913;51.168;4.124;2023-08-31T05:43:40;8.17;;;6.20;;
19535;SDS011;9913;51.168;4.124;2023-08-31T05:46:11;11.90;;;7.23;;
19535;SDS011;9913;51.168;4.124;2023-08-31T05:48:41;10.23;;;7.90;;
19535;SDS011;9913;51.168;4.124;2023-08-31T05:51:11;9.93;;;6.20;;
19535;SDS011;9913;51.168;4.124;2023-08-31T05:53:40;12.00;;;6.50;;
19535;SDS011;9913;51.168;4.124;2023-08-31T05:56:08;10.20;;;6.60;;
19535;SDS011;9913;51.168;4.124;2023-08-31T05:58:36;12.63;;;6.90;;
19535;SDS011;9913;51.168;4.124;2023-08-31T06:01:05;10.13;;;6.97;;
19535;SDS011;9913;51.168;4.124;2023-08-31T06:03:33;9.20;;;6.63;;
19535;SDS011;9913;51.168;4.124;2023-08-31T06:06:03;13.03;;;7.90;;
19535;SDS011;9913;51.168;4.124;2023-08-31T06:08:31;13.93;;;8.23;;
19535;SDS011;9913;51.168;4.124;2023-08-31T06:11:00;12.40;;;8.00;;
19535;SDS011;9913;51.168;4.124;2023-08-31T06:13:30;15.90;;;8.13;;
19535;SDS011;9913;51.168;4.124;2023-08-31T06:16:00;12.10;;;8.20;;
19535;SDS011;9913;51.168;4.124;2023-08-31T06:18:28;13.50;;;7.23;;
19535;SDS011;9913;51.168;4.124;2023-08-31T06:20:57;12.63;;;7.73;;
19535;SDS011;9913;51.168;4.124;2023-08-31T06:23:29;13.43;;;7.40;;
19535;SDS011;9913;51.168;4.124;2023-08-31T06:25:57;10.27;;;6.53;;
19535;SDS011;9913;51.168;4.124;2023-08-31T06:28:25;12.43;;;7.83;;
19535;SDS011;9913;51.168;4.124;2023-08-31T06:30:54;13.13;;;7.93;;
19535;SDS011;9913;51.168;4.124;2023-08-31T06:33:22;14.60;;;7.87;;
19535;SDS011;9913;51.168;4.124;2023-08-31T06:35:52;10.80;;;7.37;;
19535;SDS011;9913;51.168;4.124;2023-08-31T06:38:20;13.33;;;8.23;;
19535;SDS011;9913;51.168;4.124;2023-08-31T06:40:50;12.00;;;8.20;;
19535;SDS011;9913;51.168;4.124;2023-08-31T06:43:21;12.60;;;6.83;;
19535;SDS011;9913;51.168;4.124;2023-08-31T06:45:49;13.53;;;8.50;;
19535;SDS011;9913;51.168;4.124;2023-08-31T06:48:18;11.40;;;6.90;;
19535;SDS011;9913;51.168;4.124;2023-08-31T06:50:48;11.13;;;7.43;;
19535;SDS011;9913;51.168;4.124;2023-08-31T06:53:17;10.07;;;6.43;;
19535;SDS011;9913;51.168;4.124;2023-08-31T06:55:46;13.57;;;7.17;;
19535;SDS011;9913;51.168;4.124;2023-08-31T06:58:16;15.30;;;6.50;;
19535;SDS011;9913;51.168;4.124;2023-08-31T07:00:46;11.10;;;5.83;;
19535;SDS011;9913;51.168;4.124;2023-08-31T07:03:15;15.47;;;6.83;;
19535;SDS011;9913;51.168;4.124;2023-08-31T07:05:46;14.90;;;8.13;;
19535;SDS011;9913;51.168;4.124;2023-08-31T07:08:14;9.63;;;5.93;;
19535;SDS011;9913;51.168;4.124;2023-08-31T07:10:43;10.87;;;6.87;;
19535;SDS011;9913;51.168;4.124;2023-08-31T07:13:11;11.73;;;6.47;;
19535;SDS011;9913;51.168;4.124;2023-08-31T07:15:42;13.67;;;7.60;;
19535;SDS011;9913;51.168;4.124;2023-08-31T07:18:10;12.93;;;6.23;;
19535;SDS011;9913;51.168;4.124;2023-08-31T07:20:38;14.47;;;6.80;;
19535;SDS011;9913;51.168;4.124;2023-08-31T07:23:07;11.80;;;5.90;;
19535;SDS011;9913;51.168;4.124;2023-08-31T07:25:35;10.50;;;5.30;;
19535;SDS011;9913;51.168;4.124;2023-08-31T07:28:06;10.60;;;6.47;;
19535;SDS011;9913;51.168;4.124;2023-08-31T07:30:34;12.50;;;6.30;;
19535;SDS011;9913;51.168;4.124;2023-08-31T07:33:05;11.32;;;6.30;;
19535;SDS011;9913;51.168;4.124;2023-08-31T07:35:55;10.47;;;6.53;;
19535;SDS011;9913;51.168;4.124;2023-08-31T07:38:26;11.47;;;6.33;;
19535;SDS011;9913;51.168;4.124;2023-08-31T07:40:54;11.88;;;6.70;;
19535;SDS011;9913;51.168;4.124;2023-08-31T07:43:23;11.30;;;5.93;;
19535;SDS011;9913;51.168;4.124;2023-08-31T07:45:53;11.10;;;6.37;;
19535;SDS011;9913;51.168;4.124;2023-08-31T07:48:23;12.52;;;6.05;;
19535;SDS011;9913;51.168;4.124;2023-08-31T07:50:51;10.17;;;5.80;;
19535;SDS011;9913;51.168;4.124;2023-08-31T07:53:21;7.97;;;5.82;;
19535;SDS011;9913;51.168;4.124;2023-08-31T07:55:50;8.85;;;5.63;;
19535;SDS011;9913;51.168;4.124;2023-08-31T07:58:20;9.60;;;5.80;;
19535;SDS011;9913;51.168;4.124;2023-08-31T08:00:52;11.40;;;6.30;;
19535;SDS011;9913;51.168;4.124;2023-08-31T08:03:22;8.90;;;5.90;;
19535;SDS011;9913;51.168;4.124;2023-08-31T08:05:52;12.20;;;6.20;;
19535;SDS011;9913;51.168;4.124;2023-08-31T08:08:20;12.13;;;5.40;;
19535;SDS011;9913;51.168;4.124;2023-08-31T08:10:51;8.90;;;5.95;;
19535;SDS011;9913;51.168;4.124;2023-08-31T08:13:20;12.45;;;6.43;;
19535;SDS011;9913;51.168;4.124;2023-08-31T08:15:51;10.25;;;5.72;;
19535;SDS011;9913;51.168;4.124;2023-08-31T08:18:20;14.35;;;5.53;;
19535;SDS011;9913;51.168;4.124;2023-08-31T08:20:53;9.95;;;5.07;;
19535;SDS011;9913;51.168;4.124;2023-08-31T08:23:23;13.13;;;5.63;;
19535;SDS011;9913;51.168;4.124;2023-08-31T08:25:53;7.93;;;4.45;;
19535;SDS011;9913;51.168;4.124;2023-08-31T08:28:21;10.85;;;6.10;;
19535;SDS011;9913;51.168;4.124;2023-08-31T08:30:54;11.38;;;5.68;;
19535;SDS011;9913;51.168;4.124;2023-08-31T08:33:26;8.60;;;5.10;;
19535;SDS011;9913;51.168;4.124;2023-08-31T08:35:57;10.70;;;5.40;;
19535;SDS011;9913;51.168;4.124;2023-08-31T08:38:25;9.25;;;5.90;;
19535;SDS011;9913;51.168;4.124;2023-08-31T08:40:56;8.10;;;4.90;;
19535;SDS011;9913;51.168;4.124;2023-08-31T08:43:25;11.60;;;5.43;;
19535;SDS011;9913;51.168;4.124;2023-08-31T08:45:54;9.75;;;4.38;;
19535;SDS011;9913;51.168;4.124;2023-08-31T08:48:33;9.63;;;5.13;;
19535;SDS011;9913;51.168;4.124;2023-08-31T08:51:03;9.93;;;5.20;;
19535;SDS011;9913;51.168;4.124;2023-08-31T08:53:34;9.77;;;5.25;;
19535;SDS011;9913;51.168;4.124;2023-08-31T08:56:05;9.63;;;5.10;;
19535;SDS011;9913;51.168;4.124;2023-08-31T08:58:33;9.73;;;4.93;;
19535;SDS011;9913;51.168;4.124;2023-08-31T09:01:03;7.68;;;4.15;;
19535;SDS011;9913;51.168;4.124;2023-08-31T09:03:34;8.63;;;4.47;;
19535;SDS011;9913;51.168;4.124;2023-08-31T09:06:04;7.80;;;4.18;;
19535;SDS011;9913;51.168;4.124;2023-08-31T09:08:34;8.73;;;4.95;;
19535;SDS011;9913;51.168;4.124;2023-08-31T09:11:04;10.98;;;4.70;;
19535;SDS011;9913;51.168;4.124;2023-08-31T09:13:33;8.27;;;4.80;;
19535;SDS011;9913;51.168;4.124;2023-08-31T09:16:01;11.05;;;4.97;;
19535;SDS011;9913;51.168;4.124;2023-08-31T09:18:30;7.72;;;4.80;;
19535;SDS011;9913;51.168;4.124;2023-08-31T09:21:00;8.00;;;4.38;;
19535;SDS011;9913;51.168;4.124;2023-08-31T09:23:30;8.23;;;4.25;;
19535;SDS011;9913;51.168;4.124;2023-08-31T09:25:59;7.60;;;4.60;;
19535;SDS011;9913;51.168;4.124;2023-08-31T09:28:29;7.60;;;4.95;;
19535;SDS011;9913;51.168;4.124;2023-08-31T09:31:04;9.93;;;4.13;;
19535;SDS011;9913;51.168;4.124;2023-08-31T09:33:37;7.35;;;4.07;;
19535;SDS011;9913;51.168;4.124;2023-08-31T09:36:06;7.35;;;3.72;;
19535;SDS011;9913;51.168;4.124;2023-08-31T09:38:42;8.43;;;4.43;;
19535;SDS011;9913;51.168;4.124;2023-08-31T09:41:11;8.25;;;3.50;;
19535;SDS011;9913;51.168;4.124;2023-08-31T09:43:40;7.43;;;3.40;;
19535;SDS011;9913;51.168;4.124;2023-08-31T09:46:08;6.95;;;3.75;;
19535;SDS011;9913;51.168;4.124;2023-08-31T09:48:38;7.65;;;4.15;;
19535;SDS011;9913;51.168;4.124;2023-08-31T09:51:07;6.38;;;3.20;;
19535;SDS011;9913;51.168;4.124;2023-08-31T09:53:38;5.60;;;3.08;;
19535;SDS011;9913;51.168;4.124;2023-08-31T09:56:11;5.47;;;3.10;;
19535;SDS011;9913;51.168;4.124;2023-08-31T09:58:45;7.93;;;3.72;;
19535;SDS011;9913;51.168;4.124;2023-08-31T10:01:14;10.23;;;3.50;;
19535;SDS011;9913;51.168;4.124;2023-08-31T10:03:55;7.45;;;3.83;;
19535;SDS011;9913;51.168;4.124;2023-08-31T10:06:24;6.50;;;3.70;;
19535;SDS011;9913;51.168;4.124;2023-08-31T10:08:53;9.35;;;3.60;;
19535;SDS011;9913;51.168;4.124;2023-08-31T10:11:23;6.32;;;3.42;;
19535;SDS011;9913;51.168;4.124;2023-08-31T10:13:55;7.07;;;3.63;;
19535;SDS011;9913;51.168;4.124;2023-08-31T10:16:23;5.85;;;3.38;;
19535;SDS011;9913;51.168;4.124;2023-08-31T10:18:55;7.38;;;2.83;;
19535;SDS011;9913;51.168;4.124;2023-08-31T10:21:27;7.40;;;3.22;;
19535;SDS011;9913;51.168;4.124;2023-08-31T10:23:58;5.63;;;2.83;;
19535;SDS011;9913;51.168;4.124;2023-08-31T10:26:28;7.30;;;3.13;;
19535;SDS011;9913;51.168;4.124;2023-08-31T10:29:00;6.70;;;3.50;;
19535;SDS011;9913;51.168;4.124;2023-08-31T10:31:33;6.88;;;3.58;;
19535;SDS011;9913;51.168;4.124;2023-08-31T10:34:02;6.53;;;3.47;;
19535;SDS011;9913;51.168;4.124;2023-08-31T10:36:35;8.05;;;3.40;;
19535;SDS011;9913;51.168;4.124;2023-08-31T10:39:11;6.90;;;2.65;;
19535;SDS011;9913;51.168;4.124;2023-08-31T10:41:51;5.05;;;2.78;;
19535;SDS011;9913;51.168;4.124;2023-08-31T10:44:24;4.38;;;2.70;;
19535;SDS011;9913;51.168;4.124;2023-08-31T10:46:53;4.70;;;2.40;;
19535;SDS011;9913;51.168;4.124;2023-08-31T10:49:27;6.47;;;2.50;;
19535;SDS011;9913;51.168;4.124;2023-08-31T10:51:56;4.60;;;2.85;;
19535;SDS011;9913;51.168;4.124;2023-08-31T10:54:25;5.63;;;2.70;;
19535;SDS011;9913;51.168;4.124;2023-08-31T10:57:05;4.13;;;2.10;;
19535;SDS011;9913;51.168;4.124;2023-08-31T10:59:41;4.35;;;2.13;;
19535;SDS011;9913;51.168;4.124;2023-08-31T11:05:14;5.90;;;2.13;;
19535;SDS011;9913;51.168;4.124;2023-08-31T11:07:45;4.95;;;2.40;;
19535;SDS011;9913;51.168;4.124;2023-08-31T11:10:21;5.03;;;2.50;;
19535;SDS011;9913;51.168;4.124;2023-08-31T11:12:56;4.88;;;2.42;;
19535;SDS011;9913;51.168;4.124;2023-08-31T11:15:25;6.40;;;2.10;;
19535;SDS011;9913;51.168;4.124;2023-08-31T11:17:56;5.55;;;2.38;;
19535;SDS011;9913;51.168;4.124;2023-08-31T11:20:28;6.57;;;2.30;;
19535;SDS011;9913;51.168;4.124;2023-08-31T11:22:59;5.50;;;2.45;;
19535;SDS011;9913;51.168;4.124;2023-08-31T11:25:30;6.40;;;2.53;;
19535;SDS011;9913;51.168;4.124;2023-08-31T11:28:00;5.13;;;2.60;;
19535;SDS011;9913;51.168;4.124;2023-08-31T11:30:33;4.85;;;2.13;;
19535;SDS011;9913;51.168;4.124;2023-08-31T11:33:03;4.65;;;2.67;;
19535;SDS011;9913;51.168;4.124;2023-08-31T11:35:33;6.97;;;3.00;;
19535;SDS011;9913;51.168;4.124;2023-08-31T11:38:03;4.78;;;2.60;;
19535;SDS011;9913;51.168;4.124;2023-08-31T11:40:33;4.72;;;2.20;;
19535;SDS011;9913;51.168;4.124;2023-08-31T11:43:05;5.22;;;2.58;;
19535;SDS011;9913;51.168;4.124;2023-08-31T11:45:35;4.47;;;2.30;;
19535;SDS011;9913;51.168;4.124;2023-08-31T11:48:05;6.53;;;2.50;;
19535;SDS011;9913;51.168;4.124;2023-08-31T11:50:36;6.35;;;2.70;;
19535;SDS011;9913;51.168;4.124;2023-08-31T11:53:09;7.18;;;2.67;;
19535;SDS011;9913;51.168;4.124;2023-08-31T11:55:48;6.85;;;2.47;;
19535;SDS011;9913;51.168;4.124;2023-08-31T11:58:19;6.35;;;2.97;;
19535;SDS011;9913;51.168;4.124;2023-08-31T12:00:54;7.93;;;3.00;;
19535;SDS011;9913;51.168;4.124;2023-08-31T12:03:22;6.43;;;3.17;;
19535;SDS011;9913;51.168;4.124;2023-08-31T12:06:10;4.90;;;2.90;;
19535;SDS011;9913;51.168;4.124;2023-08-31T12:08:39;5.00;;;2.40;;
19535;SDS011;9913;51.168;4.124;2023-08-31T12:11:07;4.10;;;2.28;;
19535;SDS011;9913;51.168;4.124;2023-08-31T12:13:37;5.45;;;2.40;;
19535;SDS011;9913;51.168;4.124;2023-08-31T12:16:11;6.05;;;2.92;;
19535;SDS011;9913;51.168;4.124;2023-08-31T12:18:44;4.40;;;2.70;;
19535;SDS011;9913;51.168;4.124;2023-08-31T12:21:13;5.90;;;2.92;;
19535;SDS011;9913;51.168;4.124;2023-08-31T12:23:41;7.00;;;2.40;;
19535;SDS011;9913;51.168;4.124;2023-08-31T12:26:11;6.32;;;2.70;;
19535;SDS011;9913;51.168;4.124;2023-08-31T12:28:40;4.63;;;2.55;;
19535;SDS011;9913;51.168;4.124;2023-08-31T12:31:09;5.38;;;2.13;;
19535;SDS011;9913;51.168;4.124;2023-08-31T12:33:39;6.15;;;2.55;;
19535;SDS011;9913;51.168;4.124;2023-08-31T12:36:07;7.78;;;2.95;;
19535;SDS011;9913;51.168;4.124;2023-08-31T12:38:36;3.78;;;1.90;;
19535;SDS011;9913;51.168;4.124;2023-08-31T12:41:08;7.03;;;2.20;;
19535;SDS011;9913;51.168;4.124;2023-08-31T12:43:37;5.45;;;2.38;;
19535;SDS011;9913;51.168;4.124;2023-08-31T12:46:06;4.03;;;2.22;;
19535;SDS011;9913;51.168;4.124;2023-08-31T12:48:36;5.57;;;2.63;;
19535;SDS011;9913;51.168;4.124;2023-08-31T12:51:04;4.43;;;2.38;;
19535;SDS011;9913;51.168;4.124;2023-08-31T12:53:36;4.65;;;2.38;;
19535;SDS011;9913;51.168;4.124;2023-08-31T12:56:08;4.30;;;1.92;;
19535;SDS011;9913;51.168;4.124;2023-08-31T12:58:37;6.00;;;2.60;;
19535;SDS011;9913;51.168;4.124;2023-08-31T13:01:09;3.90;;;2.00;;
19535;SDS011;9913;51.168;4.124;2023-08-31T13:03:37;8.05;;;2.33;;
19535;SDS011;9913;51.168;4.124;2023-08-31T13:06:05;5.30;;;1.90;;
19535;SDS011;9913;51.168;4.124;2023-08-31T13:08:33;6.20;;;2.30;;
19535;SDS011;9913;51.168;4.124;2023-08-31T13:11:04;5.63;;;1.90;;
19535;SDS011;9913;51.168;4.124;2023-08-31T13:13:33;4.40;;;1.98;;
19535;SDS011;9913;51.168;4.124;2023-08-31T13:16:01;4.85;;;1.92;;
19535;SDS011;9913;51.168;4.124;2023-08-31T13:18:31;5.63;;;2.05;;
19535;SDS011;9913;51.168;4.124;2023-08-31T13:20:59;4.82;;;2.15;;
19535;SDS011;9913;51.168;4.124;2023-08-31T13:23:29;5.40;;;2.38;;
19535;SDS011;9913;51.168;4.124;2023-08-31T13:25:57;4.15;;;2.00;;
19535;SDS011;9913;51.168;4.124;2023-08-31T13:28:26;4.15;;;2.00;;
19535;SDS011;9913;51.168;4.124;2023-08-31T13:30:55;5.43;;;2.28;;
19535;SDS011;9913;51.168;4.124;2023-08-31T13:33:25;5.10;;;2.10;;
19535;SDS011;9913;51.168;4.124;2023-08-31T13:35:57;5.53;;;2.10;;
19535;SDS011;9913;51.168;4.124;2023-08-31T13:38:27;5.50;;;1.83;;
19535;SDS011;9913;51.168;4.124;2023-08-31T13:40:55;5.10;;;1.73;;
19535;SDS011;9913;51.168;4.124;2023-08-31T13:43:25;5.20;;;2.22;;
19535;SDS011;9913;51.168;4.124;2023-08-31T13:45:54;4.00;;;1.98;;
19535;SDS011;9913;51.168;4.124;2023-08-31T13:48:23;5.95;;;2.05;;
19535;SDS011;9913;51.168;4.124;2023-08-31T13:50:52;5.78;;;1.75;;
19535;SDS011;9913;51.168;4.124;2023-08-31T13:53:22;4.55;;;2.10;;
19535;SDS011;9913;51.168;4.124;2023-08-31T13:55:50;5.57;;;2.20;;
19535;SDS011;9913;51.168;4.124;2023-08-31T13:58:18;4.18;;;1.70;;
19535;SDS011;9913;51.168;4.124;2023-08-31T14:00:47;3.92;;;2.05;;
19535;SDS011;9913;51.168;4.124;2023-08-31T14:03:20;4.00;;;1.73;;
19535;SDS011;9913;51.168;4.124;2023-08-31T14:05:49;4.32;;;1.50;;
19535;SDS011;9913;51.168;4.124;2023-08-31T14:08:17;5.13;;;1.90;;
19535;SDS011;9913;51.168;4.124;2023-08-31T14:10:47;5.15;;;1.95;;
19535;SDS011;9913;51.168;4.124;2023-08-31T14:13:15;4.68;;;1.88;;
19535;SDS011;9913;51.168;4.124;2023-08-31T14:15:44;6.65;;;2.50;;
19535;SDS011;9913;51.168;4.124;2023-08-31T14:18:13;5.30;;;1.73;;
19535;SDS011;9913;51.168;4.124;2023-08-31T14:20:43;4.07;;;1.85;;
19535;SDS011;9913;51.168;4.124;2023-08-31T14:23:11;6.82;;;2.05;;
19535;SDS011;9913;51.168;4.124;2023-08-31T14:25:39;5.72;;;2.13;;
19535;SDS011;9913;51.168;4.124;2023-08-31T14:28:09;6.03;;;2.10;;
19535;SDS011;9913;51.168;4.124;2023-08-31T14:30:38;5.88;;;2.30;;
19535;SDS011;9913;51.168;4.124;2023-08-31T14:33:07;6.15;;;2.17;;
19535;SDS011;9913;51.168;4.124;2023-08-31T14:35:36;5.65;;;2.05;;
19535;SDS011;9913;51.168;4.124;2023-08-31T14:38:04;4.95;;;2.30;;
19535;SDS011;9913;51.168;4.124;2023-08-31T14:40:34;4.60;;;2.20;;
19535;SDS011;9913;51.168;4.124;2023-08-31T14:43:08;4.70;;;1.83;;
19535;SDS011;9913;51.168;4.124;2023-08-31T14:45:39;5.25;;;2.15;;
19535;SDS011;9913;51.168;4.124;2023-08-31T14:48:08;6.30;;;2.42;;
19535;SDS011;9913;51.168;4.124;2023-08-31T14:50:39;5.28;;;1.70;;
19535;SDS011;9913;51.168;4.124;2023-08-31T14:53:10;7.20;;;2.47;;
19535;SDS011;9913;51.168;4.124;2023-08-31T14:55:40;6.65;;;1.90;;
19535;SDS011;9913;51.168;4.124;2023-08-31T14:58:09;5.13;;;2.00;;
19535;SDS011;9913;51.168;4.124;2023-08-31T15:00:38;6.05;;;2.30;;
19535;SDS011;9913;51.168;4.124;2023-08-31T15:03:06;7.97;;;2.90;;
19535;SDS011;9913;51.168;4.124;2023-08-31T15:05:36;7.40;;;2.60;;
19535;SDS011;9913;51.168;4.124;2023-08-31T15:08:07;5.78;;;2.33;;
19535;SDS011;9913;51.168;4.124;2023-08-31T15:10:38;6.80;;;2.33;;
19535;SDS011;9913;51.168;4.124;2023-08-31T15:13:07;7.43;;;2.58;;
19535;SDS011;9913;51.168;4.124;2023-08-31T15:15:36;5.63;;;2.92;;
19535;SDS011;9913;51.168;4.124;2023-08-31T15:18:06;6.18;;;2.97;;